Time;durP1;ratioP1;P1;durP2;ratioP2;P2;SDS_P1;SDS_P2;PMS_P1;PMS_P2;Temp;Humidity;BMP_temperature;BMP_pressure;BME280_temperature;BME280_humidity;BME280_pressure;Samples;Min_cycle;Max_cycle;Signal;HPM_P1;HPM_P2
2022/06/11 00:04:06;;;;;;;1.73;1.50;;;;;;;18.69;52.93;97463.06;10011505;29;20054;-55
2022/06/11 00:09:26;;;;;;;1.65;1.40;;;;;;;18.68;53.02;97466.06;10013062;29;20128;-55
2022/06/11 00:14:47;;;;;;;1.65;1.33;;;;;;;18.66;52.90;97452.91;10008003;29;20509;-54
2022/06/11 00:20:06;;;;;;;1.88;1.27;;;;;;;18.64;52.80;97455.09;10013475;29;20926;-55
2022/06/11 00:25:27;;;;;;;1.42;1.23;;;;;;;18.62;52.90;97451.91;10007030;29;20407;-55
2022/06/11 00:30:47;;;;;;;2.35;1.40;;;;;;;18.61;53.00;97446.81;10012827;29;20468;-55
2022/06/11 00:36:08;;;;;;;1.67;1.40;;;;;;;18.60;53.07;97454.06;10017453;29;20515;-55
2022/06/11 00:41:28;;;;;;;1.83;1.40;;;;;;;18.60;53.05;97448.69;10024324;29;20063;-55
2022/06/11 00:46:54;;;;;;;1.77;1.30;;;;;;;18.62;53.30;97456.47;10007345;29;20148;-55
2022/06/11 00:52:35;;;;;;;2.03;1.50;;;;;;;18.58;53.17;97453.59;10020437;29;20083;-55
2022/06/11 00:57:57;;;;;;;4.00;1.60;;;;;;;18.56;53.21;97447.69;10017490;29;20054;-54
2022/06/11 01:03:21;;;;;;;1.67;1.45;;;;;;;18.55;53.06;97446.09;10028309;29;20054;-55
2022/06/11 01:08:40;;;;;;;2.80;1.60;;;;;;;18.53;53.30;97443.69;9999551;29;20149;-55
2022/06/11 01:14:29;;;;;;;1.88;1.63;;;;;;;18.52;53.04;97441.31;10025757;29;20406;-55
2022/06/11 01:19:57;;;;;;;1.67;1.52;;;;;;;18.51;53.48;97434.31;10002937;29;20413;-55
2022/06/11 01:25:32;;;;;;;2.17;1.40;;;;;;;18.50;53.25;97435.41;10017109;29;20062;-55
2022/06/11 01:31:07;;;;;;;1.70;1.60;;;;;;;18.49;53.20;97441.91;9995076;29;20768;-55
2022/06/11 01:36:30;;;;;;;1.95;1.67;;;;;;;18.46;53.37;97431.72;10004423;29;20118;-55
2022/06/11 01:41:59;;;;;;;2.17;1.50;;;;;;;18.44;53.23;97431.22;10007826;29;20067;-55
2022/06/11 01:47:19;;;;;;;1.90;1.70;;;;;;;18.42;53.18;97436.13;10017470;29;20747;-55
2022/06/11 01:52:53;;;;;;;2.10;2.00;;;;;;;18.40;53.17;97431.03;10035960;29;20069;-55
2022/06/11 01:58:33;;;;;;;1.92;1.73;;;;;;;18.36;53.17;97430.81;10008584;29;20062;-55
2022/06/11 02:04:17;;;;;;;2.20;2.00;;;;;;;18.34;53.02;97434.91;9999209;29;20486;-55
2022/06/11 02:10:05;;;;;;;2.45;1.85;;;;;;;18.32;52.93;97435.22;10021439;29;20061;-55
2022/06/11 02:15:39;;;;;;;2.90;1.87;;;;;;;18.29;52.86;97433.13;10026559;29;20056;-55
2022/06/11 02:21:03;;;;;;;1.83;1.70;;;;;;;18.29;52.89;97440.44;10004058;29;20399;-55
2022/06/11 02:26:27;;;;;;;2.05;1.90;;;;;;;18.26;52.84;97435.63;9988359;29;20058;-55
2022/06/11 02:31:54;;;;;;;3.20;1.85;;;;;;;18.24;52.72;97443.22;10007018;29;20072;-55
2022/06/11 02:37:30;;;;;;;2.85;1.83;;;;;;;18.21;52.60;97441.09;10014080;29;20136;-55
2022/06/11 02:42:50;;;;;;;3.50;1.98;;;;;;;18.20;52.60;97450.31;10019987;29;20064;-55
2022/06/11 02:48:10;;;;;;;2.30;1.90;;;;;;;18.17;52.31;97449.03;10018996;29;20429;-55
2022/06/11 02:53:30;;;;;;;3.97;1.85;;;;;;;18.14;52.27;97444.22;10028621;29;20130;-55
2022/06/11 02:58:49;;;;;;;2.53;1.75;;;;;;;18.12;52.43;97460.69;10031879;29;20111;-55
2022/06/11 03:04:10;;;;;;;2.35;2.15;;;;;;;18.09;52.55;97460.47;10019304;29;20057;-55
2022/06/11 03:09:33;;;;;;;2.38;2.20;;;;;;;18.07;52.65;97454.59;10018222;29;20061;-55
2022/06/11 03:14:52;;;;;;;2.22;2.10;;;;;;;18.07;52.71;97457.28;10017577;29;20058;-55
2022/06/11 03:20:13;;;;;;;2.60;2.38;;;;;;;18.05;52.77;97465.66;10016546;29;20375;-54
2022/06/11 03:25:33;;;;;;;2.60;2.40;;;;;;;18.05;52.79;97470.25;10014202;29;20061;-55
2022/06/11 03:30:52;;;;;;;2.95;2.45;;;;;;;18.05;52.71;97470.25;10018334;29;20589;-55
2022/06/11 03:36:14;;;;;;;4.38;2.50;;;;;;;18.03;52.80;97473.25;10016580;29;20054;-55
2022/06/11 03:41:34;;;;;;;2.70;2.50;;;;;;;18.06;53.03;97474.56;10017985;29;20414;-55
2022/06/11 03:46:53;;;;;;;2.60;2.40;;;;;;;18.05;53.14;97475.66;10014574;29;20065;-55
2022/06/11 03:52:13;;;;;;;3.42;2.65;;;;;;;18.04;53.21;97487.56;10016063;29;20130;-55
2022/06/11 03:57:33;;;;;;;3.40;2.92;;;;;;;18.05;53.07;97487.22;10015873;29;20062;-55
2022/06/11 04:02:53;;;;;;;3.13;2.63;;;;;;;18.07;53.37;97492.34;10013563;29;20538;-55
2022/06/11 04:08:13;;;;;;;2.90;2.70;;;;;;;18.07;53.46;97492.34;10009114;29;20061;-55
2022/06/11 04:13:35;;;;;;;3.97;2.65;;;;;;;18.07;53.62;97493.16;10026203;29;20056;-54
2022/06/11 04:18:57;;;;;;;2.88;2.67;;;;;;;18.07;53.79;97495.84;10025555;29;20057;-55
2022/06/11 04:24:17;;;;;;;2.95;2.65;;;;;;;18.09;54.06;97495.53;10025251;29;20060;-54
2022/06/11 04:29:40;;;;;;;3.67;2.90;;;;;;;18.12;54.15;97497.66;10011583;29;20490;-55
2022/06/11 04:35:01;;;;;;;3.03;2.83;;;;;;;18.15;54.20;97503.25;10012666;29;20062;-55
2022/06/11 04:40:20;;;;;;;4.43;3.00;;;;;;;18.18;54.50;97501.84;10012717;29;20058;-53
2022/06/11 04:45:40;;;;;;;3.38;2.63;;;;;;;18.20;54.83;97499.66;10003579;29;20065;-54
2022/06/11 04:51:00;;;;;;;3.33;3.00;;;;;;;18.21;54.83;97498.56;10013484;29;20069;-55
2022/06/11 04:56:23;;;;;;;3.22;2.92;;;;;;;18.24;54.96;97503.34;10023854;29;20061;-55
2022/06/11 05:01:43;;;;;;;4.15;3.20;;;;;;;18.27;55.16;97507.34;10010920;29;20474;-55
2022/06/11 05:07:04;;;;;;;3.55;3.22;;;;;;;18.27;55.56;97516.25;10024362;29;20053;-55
2022/06/11 05:12:23;;;;;;;3.55;3.25;;;;;;;18.28;55.63;97507.03;10021671;29;20049;-55
2022/06/11 05:17:43;;;;;;;3.78;3.40;;;;;;;18.30;55.64;97510.25;10010334;29;20126;-55
2022/06/11 05:23:02;;;;;;;3.40;3.10;;;;;;;18.32;55.80;97529.63;10012713;29;20054;-54
2022/06/11 05:28:25;;;;;;;4.22;2.90;;;;;;;18.34;55.48;97526.63;10011180;29;20065;-55
2022/06/11 05:33:45;;;;;;;4.38;3.83;;;;;;;18.35;55.45;97529.03;9995940;29;20111;-55
2022/06/11 05:39:04;;;;;;;3.97;3.55;;;;;;;18.35;55.76;97531.75;10012922;29;20058;-55
2022/06/11 05:44:24;;;;;;;4.20;3.63;;;;;;;18.36;56.02;97538.72;10015208;29;20084;-55
2022/06/11 05:49:46;;;;;;;3.95;3.58;;;;;;;18.35;56.16;97526.34;10028276;29;20054;-56
2022/06/11 05:55:06;;;;;;;4.20;3.80;;;;;;;18.36;56.54;97532.53;10028549;29;20103;-54
2022/06/11 06:00:28;;;;;;;6.25;3.85;;;;;;;18.36;56.54;97529.84;10017633;29;20111;-55
2022/06/11 06:05:47;;;;;;;6.53;3.60;;;;;;;18.37;56.27;97536.84;9986005;29;20672;-55
2022/06/11 06:11:07;;;;;;;4.32;3.55;;;;;;;18.36;56.40;97538.72;10014096;29;20053;-55
2022/06/11 06:16:30;;;;;;;4.10;3.30;;;;;;;18.38;56.15;97533.84;10009665;29;20470;-55
2022/06/11 06:21:50;;;;;;;3.42;3.13;;;;;;;18.37;56.06;97532.25;10022172;29;20061;-55
2022/06/11 06:27:09;;;;;;;4.50;3.30;;;;;;;18.40;56.44;97533.53;10026476;29;20061;-55
2022/06/11 06:32:28;;;;;;;3.60;3.30;;;;;;;18.41;56.46;97534.34;10016504;29;20062;-53
2022/06/11 06:37:47;;;;;;;3.70;3.40;;;;;;;18.41;56.45;97543.25;10017873;29;20066;-55
2022/06/11 06:43:08;;;;;;;3.67;3.30;;;;;;;18.41;56.54;97542.44;10025867;29;20771;-55
2022/06/11 06:48:27;;;;;;;3.35;2.88;;;;;;;18.43;56.60;97538.34;10009834;29;20114;-55
2022/06/11 06:53:47;;;;;;;3.10;2.80;;;;;;;18.44;56.65;97541.84;10030894;29;20490;-55
2022/06/11 06:59:07;;;;;;;3.47;2.95;;;;;;;18.45;56.58;97538.06;10014831;29;20073;-55
2022/06/11 07:04:26;;;;;;;2.95;2.70;;;;;;;18.44;56.65;97534.53;10016258;29;20079;-55
2022/06/11 07:09:51;;;;;;;3.40;2.70;;;;;;;18.45;56.52;97538.84;10008152;29;20061;-55
2022/06/11 07:15:11;;;;;;;4.07;3.00;;;;;;;18.46;56.65;97540.44;10029158;29;20055;-55
2022/06/11 07:20:32;;;;;;;2.97;2.70;;;;;;;18.47;56.77;97536.66;10018099;29;20064;-55
2022/06/11 07:25:54;;;;;;;2.42;2.22;;;;;;;18.49;56.88;97537.16;10008802;29;20122;-55
2022/06/11 07:31:14;;;;;;;2.55;2.35;;;;;;;18.50;56.89;97540.63;10008996;29;20528;-53
2022/06/11 07:36:34;;;;;;;2.55;2.30;;;;;;;18.50;56.66;97538.75;10012630;29;20512;-55
2022/06/11 07:41:53;;;;;;;3.55;2.30;;;;;;;18.50;56.82;97541.47;10005801;29;20066;-55
2022/06/11 07:47:13;;;;;;;2.95;2.30;;;;;;;18.53;56.58;97537.34;10003466;29;20477;-54
2022/06/11 07:52:32;;;;;;;3.53;2.40;;;;;;;18.54;56.34;97541.63;10005300;29;20114;-54
2022/06/11 07:57:52;;;;;;;4.90;2.25;;;;;;;18.55;56.27;97540.53;10015094;29;20099;-55
2022/06/11 08:03:11;;;;;;;2.42;2.20;;;;;;;18.54;56.36;97544.34;10029232;29;20114;-55
2022/06/11 08:08:31;;;;;;;2.70;2.13;;;;;;;18.53;56.34;97551.63;10017997;29;20065;-54
2022/06/11 08:13:51;;;;;;;3.42;2.20;;;;;;;18.53;56.22;97545.44;10029247;29;20095;-55
2022/06/11 08:19:10;;;;;;;2.38;2.15;;;;;;;18.52;56.29;97539.25;10016649;29;20111;-54
2022/06/11 08:24:30;;;;;;;2.80;1.95;;;;;;;18.53;56.29;97545.44;10029651;29;20045;-53
2022/06/11 08:29:49;;;;;;;2.83;2.13;;;;;;;18.53;56.22;97546.25;10019686;29;20502;-54
2022/06/11 08:35:09;;;;;;;2.50;1.92;;;;;;;18.53;56.32;97543.53;10015580;29;20054;-53
2022/06/11 08:40:36;;;;;;;2.20;2.00;;;;;;;18.54;56.18;97541.63;10027976;29;20110;-55
2022/06/11 08:46:00;;;;;;;2.50;2.30;;;;;;;18.55;56.21;97538.63;10015339;29;20066;-55
2022/06/11 08:51:31;;;;;;;2.22;2.03;;;;;;;18.56;56.16;97528.63;10002651;29;20069;-55
2022/06/11 08:56:55;;;;;;;2.15;1.95;;;;;;;18.57;56.20;97535.66;9996957;29;20058;-55
2022/06/11 09:02:45;;;;;;;2.55;1.90;;;;;;;18.58;55.96;97537.22;10011028;29;20053;-55
2022/06/11 09:08:34;;;;;;;3.58;1.90;;;;;;;18.58;55.94;97524.56;9988758;29;20074;-55
2022/06/11 09:14:05;;;;;;;2.35;1.85;;;;;;;18.61;55.75;97533.94;9991170;29;20054;-54
2022/06/11 09:19:37;;;;;;;5.35;3.15;;;;;;;18.60;56.13;97529.63;10008383;29;20077;-55
2022/06/11 09:25:22;;;;;;;7.22;4.20;;;;;;;18.61;56.53;97523.16;10012817;29;20070;-55
2022/06/11 09:30:46;;;;;;;4.82;2.90;;;;;;;18.63;56.42;97522.84;10009835;29;20062;-55
2022/06/11 09:36:11;;;;;;;3.10;2.28;;;;;;;18.61;56.42;97515.06;10012498;29;20065;-55
2022/06/11 09:42:03;;;;;;;3.20;2.40;;;;;;;18.60;56.29;97509.94;10006750;29;20058;-55
2022/06/11 09:47:24;;;;;;;2.65;2.15;;;;;;;18.61;56.18;97515.06;9963037;29;20057;-55
2022/06/11 09:52:50;;;;;;;2.42;1.95;;;;;;;18.61;55.98;97517.75;10037108;29;20060;-55
2022/06/11 09:58:30;;;;;;;3.22;2.00;;;;;;;18.61;55.96;97501.56;10014253;29;20069;-55
2022/06/11 10:03:56;;;;;;;2.30;2.10;;;;;;;18.61;55.98;97498.88;9999661;29;20611;-55
2022/06/11 10:09:20;;;;;;;2.33;1.90;;;;;;;18.61;55.74;97498.88;10005538;29;20062;-55
2022/06/11 10:14:53;;;;;;;2.10;1.90;;;;;;;18.62;55.73;97495.09;10005330;29;20058;-55
2022/06/11 10:20:24;;;;;;;2.15;1.83;;;;;;;18.63;55.56;97503.97;10016666;29;20057;-55
2022/06/11 10:26:15;;;;;;;1.90;1.70;;;;;;;18.64;55.32;97497.47;10020042;29;20422;-55
2022/06/11 10:31:39;;;;;;;2.17;1.98;;;;;;;18.63;55.28;97493.19;10023440;29;20110;-55
2022/06/11 10:37:19;;;;;;;4.80;1.80;;;;;;;18.65;55.03;97493.69;10031770;29;20050;-54
2022/06/11 10:42:46;;;;;;;2.78;1.95;;;;;;;18.66;54.97;97498.78;9992752;29;20053;-55
2022/06/11 10:48:14;;;;;;;2.00;1.80;;;;;;;18.67;54.50;97484.16;10012932;29;20058;-55
2022/06/11 10:53:37;;;;;;;2.47;1.90;;;;;;;18.68;54.31;97493.06;10015442;29;20054;-55
2022/06/11 10:59:13;;;;;;;1.88;1.77;;;;;;;18.68;54.31;97482.25;10006624;29;20062;-55
2022/06/11 11:05:04;;;;;;;1.70;1.60;;;;;;;18.66;54.27;97485.28;10005628;29;20058;-55
2022/06/11 11:10:36;;;;;;;2.35;1.60;;;;;;;18.67;54.27;97476.06;10014798;29;20054;-55
2022/06/11 11:15:59;;;;;;;2.90;1.80;;;;;;;18.68;54.32;97472.28;10031092;29;20057;-54
2022/06/11 11:21:24;;;;;;;2.17;1.70;;;;;;;18.68;54.41;97471.47;10019009;29;20057;-55
2022/06/11 11:26:48;;;;;;;1.70;1.60;;;;;;;18.68;54.44;97472.28;10002022;29;20117;-55
2022/06/11 11:32:37;;;;;;;2.50;1.85;;;;;;;18.67;54.21;97465.28;10016810;29;20061;-55
2022/06/11 11:37:57;;;;;;;1.75;1.65;;;;;;;18.70;54.29;97466.56;10021027;29;20072;-55
2022/06/11 11:43:17;;;;;;;2.05;1.70;;;;;;;18.71;53.94;97466.25;10029999;29;20057;-55
2022/06/11 11:48:56;;;;;;;1.70;1.60;;;;;;;18.71;53.74;97455.47;10027324;29;20046;-55
2022/06/11 11:54:22;;;;;;;;;;;;;;;18.70;54.10;97448.50;10018512;29;20054;-54
2022/06/11 11:59:48;;;;;;;1.55;1.45;;;;;;;18.72;54.15;97448.97;10002862;29;20389;-55
2022/06/11 12:05:11;;;;;;;1.70;1.60;;;;;;;18.72;54.10;97457.09;10003067;29;20058;-55
2022/06/11 12:10:34;;;;;;;2.03;1.50;;;;;;;18.75;53.66;97442.19;9994651;29;20133;-55
2022/06/11 12:16:00;;;;;;;1.92;1.73;;;;;;;18.77;53.39;97453.47;9998596;29;20054;-55
2022/06/11 12:21:22;;;;;;;1.95;1.60;;;;;;;18.77;53.40;97446.16;10019786;29;20069;-55
2022/06/11 12:26:46;;;;;;;1.67;1.58;;;;;;;18.75;53.65;97434.88;10001044;29;20061;-55
2022/06/11 12:32:27;;;;;;;1.88;1.70;;;;;;;18.76;53.37;97443.78;10002985;29;20057;-55
2022/06/11 12:38:01;;;;;;;2.53;1.92;;;;;;;18.77;53.42;97434.56;10003834;29;20061;-55
2022/06/11 12:43:35;;;;;;;1.85;1.75;;;;;;;18.75;53.47;97436.78;9995411;29;20054;-55
2022/06/11 12:49:12;;;;;;;2.08;1.83;;;;;;;18.75;53.39;97440.25;10011894;29;20054;-55
2022/06/11 12:55:14;;;;;;;1.70;1.60;;;;;;;18.76;53.37;97431.06;10015450;29;20054;-55
2022/06/11 13:00:51;;;;;;;1.83;1.52;;;;;;;18.76;53.61;97425.69;9996836;29;20057;-55
2022/06/11 13:06:30;;;;;;;2.95;1.77;;;;;;;18.77;53.82;97427.25;10014296;29;20054;-55
2022/06/11 13:12:22;;;;;;;2.47;1.95;;;;;;;18.80;53.28;97417.00;10021939;29;20069;-55
2022/06/11 13:17:58;;;;;;;1.65;1.55;;;;;;;18.80;53.31;97422.38;10011663;29;20053;-55
2022/06/11 13:23:24;;;;;;;1.60;1.50;;;;;;;18.80;53.35;97425.09;10015914;29;20430;-55
2022/06/11 13:28:53;;;;;;;2.17;1.65;;;;;;;18.80;53.50;97422.38;10020355;29;20077;-55
2022/06/11 13:34:34;;;;;;;1.77;1.63;;;;;;;18.80;53.62;97420.50;10015588;29;20054;-55
2022/06/11 13:40:06;;;;;;;2.63;1.95;;;;;;;18.82;53.23;97412.09;10018865;29;20058;-55
2022/06/11 13:45:36;;;;;;;2.10;1.90;;;;;;;18.85;52.92;97406.09;10034242;29;20057;-55
2022/06/11 13:51:11;;;;;;;1.90;1.70;;;;;;;18.86;52.87;97400.38;10002672;29;20066;-55
2022/06/11 13:56:34;;;;;;;1.70;1.60;;;;;;;18.85;53.20;97406.88;10007063;29;20612;-55
2022/06/11 14:02:08;;;;;;;1.85;1.75;;;;;;;18.88;52.84;97400.09;10010392;29;20061;-55
2022/06/11 14:07:29;;;;;;;2.85;1.80;;;;;;;18.89;52.87;97401.69;10010868;29;20903;-55
2022/06/11 14:12:52;;;;;;;1.98;1.88;;;;;;;18.89;52.95;97396.28;10010354;29;20195;-55
2022/06/11 14:18:23;;;;;;;1.58;1.48;;;;;;;18.88;53.01;97383.91;10013991;29;20065;-55
2022/06/11 14:23:45;;;;;;;2.70;1.90;;;;;;;18.89;53.10;97383.56;10021840;29;20471;-54
2022/06/11 14:29:05;;;;;;;1.95;1.73;;;;;;;18.91;52.85;97383.28;10008949;29;20118;-55
2022/06/11 14:34:31;;;;;;;2.38;1.73;;;;;;;18.95;52.70;97379.66;10007881;29;20066;-55
2022/06/11 14:40:04;;;;;;;2.10;1.88;;;;;;;18.95;52.88;97368.06;10006782;29;20073;-55
2022/06/11 14:45:35;;;;;;;2.03;1.70;;;;;;;18.94;53.15;97379.97;10021888;29;20463;-55
2022/06/11 14:51:16;;;;;;;1.90;1.60;;;;;;;19.02;52.55;97384.63;10015834;29;20050;-55
2022/06/11 14:56:52;;;;;;;1.63;1.52;;;;;;;19.06;52.68;97372.13;10019250;29;20057;-55
2022/06/11 15:02:36;;;;;;;3.15;1.73;;;;;;;19.09;52.29;97368.81;10021447;29;20083;-55
2022/06/11 15:08:14;;;;;;;1.92;1.70;;;;;;;19.12;52.16;97373.59;10020229;29;20065;-55
2022/06/11 15:13:43;;;;;;;2.07;1.70;;;;;;;19.16;52.03;97371.06;10018050;29;20065;-55
2022/06/11 15:19:18;;;;;;;1.90;1.80;;;;;;;19.16;52.09;97358.34;10012391;29;20066;-55
2022/06/11 15:24:54;;;;;;;1.50;1.40;;;;;;;19.21;52.12;97362.03;9997571;29;20460;-55
2022/06/11 15:30:28;;;;;;;1.83;1.52;;;;;;;19.33;52.11;97354.97;10012852;29;20065;-55
2022/06/11 15:35:50;;;;;;;4.50;1.67;;;;;;;19.48;51.99;97353.81;10014896;29;20058;-55
2022/06/11 15:41:19;;;;;;;3.33;1.98;;;;;;;19.55;51.24;97351.44;10017396;29;20062;-55
2022/06/11 15:46:40;;;;;;;3.60;2.45;;;;;;;19.53;52.00;97345.53;10000887;29;20490;-55
2022/06/11 15:52:21;;;;;;;5.50;2.70;;;;;;;19.55;51.86;97347.94;10002469;29;20068;-55
2022/06/11 15:57:57;;;;;;;4.60;2.83;;;;;;;19.55;52.59;97347.94;10006437;29;20402;-55
2022/06/11 16:03:19;;;;;;;5.63;3.10;;;;;;;19.61;52.99;97357.50;10013954;29;20064;-55
2022/06/11 16:08:52;;;;;;;7.35;2.80;;;;;;;19.67;53.14;97347.34;10010056;29;20422;-55
2022/06/11 16:14:25;;;;;;;4.35;2.70;;;;;;;19.66;53.79;97351.97;10009447;29;20425;-55
2022/06/11 16:20:00;;;;;;;4.18;2.83;;;;;;;19.71;54.09;97356.44;9992814;29;20065;-55
2022/06/11 16:25:36;;;;;;;4.50;2.78;;;;;;;19.76;54.06;97356.34;10019744;29;20479;-55
2022/06/11 16:30:56;;;;;;;4.20;2.65;;;;;;;19.79;53.61;97363.03;10013308;29;20069;-55
2022/06/11 16:36:32;;;;;;;3.40;2.58;;;;;;;19.83;53.48;97353.97;9994875;29;20057;-55
2022/06/11 16:47:31;;;;;;;2.80;2.37;;;;;;;19.78;53.41;97351.41;9999307;29;20068;-54
2022/06/11 16:59:04;;;;;;;2.38;2.17;;;;;;;19.55;53.99;97354.13;10014207;29;20054;-55
2022/06/11 17:04:27;;;;;;;2.83;2.45;;;;;;;19.47;54.12;97357.59;10014745;29;20118;-54
2022/06/11 17:09:47;;;;;;;2.50;2.20;;;;;;;19.44;54.15;97355.50;10015087;29;20414;-54
2022/06/11 17:15:07;;;;;;;3.28;2.42;;;;;;;19.42;54.37;97360.41;10010853;29;20070;-55
2022/06/11 17:20:41;;;;;;;2.42;2.22;;;;;;;19.40;54.55;97351.03;10019595;29;20081;-54
2022/06/11 17:26:05;;;;;;;2.55;1.95;;;;;;;19.39;54.56;97355.66;9990170;29;20685;-55
2022/06/11 17:31:38;;;;;;;2.50;2.30;;;;;;;19.37;54.54;97357.88;9998434;29;20663;-55
2022/06/11 17:37:00;;;;;;;2.47;2.28;;;;;;;19.36;54.63;97357.03;10014749;29;20061;-55
2022/06/11 17:42:19;;;;;;;2.50;2.30;;;;;;;19.35;54.62;97350.06;10025576;29;20111;-55
2022/06/11 17:47:39;;;;;;;2.83;2.10;;;;;;;19.35;54.71;97355.47;10009654;29;20065;-53
2022/06/11 17:53:01;;;;;;;2.30;2.10;;;;;;;19.35;54.82;97363.56;10016895;29;20069;-55
2022/06/11 17:58:20;;;;;;;2.28;2.00;;;;;;;19.34;54.76;97364.66;9999929;29;20062;-55
2022/06/11 18:03:40;;;;;;;2.20;2.00;;;;;;;19.35;54.84;97360.06;10005930;29;20087;-55
2022/06/11 18:09:00;;;;;;;2.72;1.95;;;;;;;19.35;55.06;97362.78;10019100;29;20064;-55
2022/06/11 18:14:20;;;;;;;1.90;1.80;;;;;;;19.34;55.11;97367.38;10029431;29;20051;-55
2022/06/11 18:19:40;;;;;;;1.63;1.52;;;;;;;19.36;54.99;97375.16;10010423;29;20090;-55
2022/06/11 18:25:18;;;;;;;2.17;1.90;;;;;;;19.35;55.09;97365.47;10043907;29;20066;-55
2022/06/11 18:30:41;;;;;;;2.20;2.00;;;;;;;19.34;55.20;97369.28;10011693;29;20070;-55
2022/06/11 18:36:02;;;;;;;1.88;1.77;;;;;;;19.35;55.11;97387.88;10015516;29;20057;-55
2022/06/11 18:41:21;;;;;;;2.15;1.98;;;;;;;19.34;55.17;97393.59;10015965;29;20053;-55
2022/06/11 18:46:41;;;;;;;1.70;1.60;;;;;;;19.34;55.18;97390.88;10018680;29;20061;-54
2022/06/11 18:52:00;;;;;;;2.10;1.90;;;;;;;19.34;55.09;97397.09;10017890;29;20054;-55
2022/06/11 18:57:20;;;;;;;2.38;2.00;;;;;;;19.34;55.19;97401.69;10007205;29;20066;-54
2022/06/11 19:02:40;;;;;;;2.58;2.08;;;;;;;19.33;55.07;97405.53;10012038;29;20063;-55
2022/06/11 19:07:59;;;;;;;2.10;1.90;;;;;;;19.33;55.01;97416.31;10008615;29;20069;-55
2022/06/11 19:13:19;;;;;;;3.13;2.28;;;;;;;19.34;55.06;97417.91;10022255;29;20565;-55
2022/06/11 19:18:39;;;;;;;2.35;2.15;;;;;;;19.32;54.90;97423.59;10016885;29;20061;-55
2022/06/11 19:23:59;;;;;;;2.20;2.00;;;;;;;19.32;54.90;97434.41;10021367;29;20054;-55
2022/06/11 19:29:22;;;;;;;2.60;2.40;;;;;;;19.34;54.89;97436.81;10013345;29;20085;-55
2022/06/11 19:34:42;;;;;;;2.08;1.98;;;;;;;19.31;54.89;97432.03;10021437;29;20061;-54
2022/06/11 19:40:03;;;;;;;2.47;2.28;;;;;;;19.29;54.84;97434.25;10007777;29;20525;-54
2022/06/11 19:45:23;;;;;;;2.38;2.10;;;;;;;19.28;54.81;97441.53;10015408;29;20058;-55
2022/06/11 19:50:43;;;;;;;2.30;2.10;;;;;;;19.29;54.61;97448.56;9989712;29;20459;-55
2022/06/11 19:56:06;;;;;;;2.63;2.00;;;;;;;19.28;54.67;97446.16;9995331;29;20465;-55
2022/06/11 20:01:27;;;;;;;2.97;2.00;;;;;;;19.28;54.57;97446.94;9991916;29;20123;-55
2022/06/11 20:06:47;;;;;;;2.67;2.10;;;;;;;19.29;54.52;97455.88;9994316;29;20069;-54
2022/06/11 20:12:06;;;;;;;2.53;2.15;;;;;;;19.28;54.49;97456.94;10006533;29;20054;-55
2022/06/11 20:17:26;;;;;;;2.90;2.15;;;;;;;19.27;54.57;97456.16;10020278;29;20060;-55
2022/06/11 20:22:49;;;;;;;3.60;2.15;;;;;;;19.26;54.61;97457.25;10022633;29;20065;-55
2022/06/11 20:28:09;;;;;;;2.33;2.13;;;;;;;19.26;54.54;97456.47;10022427;29;20168;-55
2022/06/11 20:33:31;;;;;;;2.15;2.05;;;;;;;19.27;54.56;97455.38;10000264;29;20430;-55
2022/06/11 20:38:52;;;;;;;2.20;2.10;;;;;;;19.26;54.63;97461.88;10024032;29;20062;-54
2022/06/11 20:44:12;;;;;;;2.47;2.08;;;;;;;19.26;54.79;97459.16;10014245;29;20064;-55
2022/06/11 20:49:45;;;;;;;2.70;2.50;;;;;;;19.25;54.71;97462.97;10017061;29;20058;-55
2022/06/11 20:55:05;;;;;;;2.60;2.40;;;;;;;19.26;54.64;97465.34;10012996;29;20057;-55
2022/06/11 21:00:25;;;;;;;2.72;2.45;;;;;;;19.24;54.80;97464.88;10014032;29;20058;-55
2022/06/11 21:05:45;;;;;;;2.53;2.33;;;;;;;19.25;54.83;97457.56;10016397;29;20061;-55
2022/06/11 21:11:04;;;;;;;2.90;2.65;;;;;;;19.24;54.70;97469.47;10006457;29;20450;-55
2022/06/11 21:16:24;;;;;;;2.65;2.45;;;;;;;19.24;54.87;97470.28;9998709;29;20054;-54
2022/06/11 21:21:57;;;;;;;3.90;3.60;;;;;;;19.24;54.74;97477.59;10006443;29;20097;-55
2022/06/11 21:27:19;;;;;;;4.28;3.88;;;;;;;19.23;54.76;97473.28;9994779;29;20054;-55
2022/06/11 21:32:39;;;;;;;4.07;3.70;;;;;;;19.22;54.82;97477.88;9989302;29;20518;-53
2022/06/11 21:37:59;;;;;;;3.80;3.50;;;;;;;19.22;54.75;97477.09;10021609;29;20115;-54
2022/06/11 21:43:18;;;;;;;4.82;3.47;;;;;;;19.23;54.74;97476.78;10028806;29;20057;-55
2022/06/11 21:48:38;;;;;;;3.25;2.90;;;;;;;19.22;54.77;97485.19;10021020;29;20061;-55
2022/06/11 21:53:58;;;;;;;3.20;2.90;;;;;;;19.22;54.89;97485.19;10033994;29;20128;-55
2022/06/11 21:59:18;;;;;;;3.50;3.20;;;;;;;19.21;54.83;97475.47;10024670;29;20061;-55
2022/06/11 22:04:38;;;;;;;3.05;2.83;;;;;;;19.22;54.67;97480.59;10022263;29;20062;-54
2022/06/11 22:09:58;;;;;;;4.00;2.75;;;;;;;19.22;54.83;97482.50;10010141;29;20191;-55
2022/06/11 22:15:17;;;;;;;3.35;3.05;;;;;;;19.21;54.95;97478.19;10020855;29;20062;-54
2022/06/11 22:20:37;;;;;;;2.88;2.67;;;;;;;19.21;54.79;97479.00;10009462;29;20574;-55
2022/06/11 22:25:56;;;;;;;3.00;2.70;;;;;;;19.21;54.73;97472.78;10025001;29;20602;-55
2022/06/11 22:31:18;;;;;;;2.85;2.65;;;;;;;19.20;54.83;97482.78;10020148;29;20062;-53
2022/06/11 22:36:37;;;;;;;3.13;2.83;;;;;;;19.20;54.83;97476.59;10019451;29;20069;-55
2022/06/11 22:41:57;;;;;;;2.85;2.65;;;;;;;19.20;54.79;97473.91;10019186;29;20202;-55
2022/06/11 22:47:17;;;;;;;2.42;2.25;;;;;;;19.19;54.87;97470.41;10016579;29;20452;-55
2022/06/11 22:52:38;;;;;;;2.55;2.35;;;;;;;19.19;54.81;97461.47;10004361;29;20058;-55
2022/06/11 22:58:01;;;;;;;2.55;2.33;;;;;;;19.19;54.92;97459.59;10016957;29;20061;-55
2022/06/11 23:03:23;;;;;;;2.60;2.40;;;;;;;19.18;54.86;97463.41;9994929;29;20075;-55
2022/06/11 23:08:43;;;;;;;2.42;2.22;;;;;;;19.19;54.65;97459.59;10002029;29;20111;-55
2022/06/11 23:14:02;;;;;;;2.65;2.42;;;;;;;19.19;54.79;97458.78;9999202;29;20566;-55
2022/06/11 23:19:22;;;;;;;2.60;2.30;;;;;;;19.17;54.60;97468.00;9989001;29;21833;-55
2022/06/11 23:24:41;;;;;;;2.83;2.40;;;;;;;19.17;54.84;97465.31;9994302;29;20502;-54
2022/06/11 23:30:01;;;;;;;2.95;2.40;;;;;;;19.17;54.96;97459.91;9987524;29;20054;-54
2022/06/11 23:35:21;;;;;;;3.53;2.60;;;;;;;19.17;54.98;97456.41;9997736;29;20138;-54
2022/06/11 23:40:47;;;;;;;2.90;2.70;;;;;;;19.16;54.88;97461.00;9984871;29;20062;-55
2022/06/11 23:46:07;;;;;;;3.30;3.00;;;;;;;19.15;54.82;97454.00;9988573;29;20106;-55
2022/06/11 23:51:29;;;;;;;3.40;3.10;;;;;;;19.15;55.05;97464.81;10017599;29;20061;-55
2022/06/11 23:56:50;;;;;;;3.70;3.30;;;;;;;19.13;55.28;97467.03;10017636;29;20478;-54
